createdAt,value
2018-03-06T00:01:50.714Z,47.35
2018-03-06T00:04:19.655Z,47.27
2018-03-06T00:06:48.647Z,47.21
2018-03-06T00:09:17.736Z,47.26
2018-03-06T00:11:46.683Z,45.13
2018-03-06T00:15:39.483Z,43.13
2018-03-06T00:18:08.565Z,43.04
2018-03-06T00:20:37.717Z,44.21
2018-03-06T00:23:06.683Z,45.48
2018-03-06T00:27:22.736Z,46.27
2018-03-06T00:29:51.719Z,46.52
2018-03-06T00:32:20.726Z,46.66
2018-03-06T00:34:50.506Z,46.76
2018-03-06T00:37:19.584Z,46.89
2018-03-06T00:40:18.492Z,46.91
2018-03-06T00:42:47.607Z,46.93
2018-03-06T00:45:16.715Z,46.73
2018-03-06T00:47:45.671Z,46.73
2018-03-06T00:52:27.671Z,46.96
2018-03-06T00:54:56.720Z,46.94
2018-03-06T00:57:25.695Z,46.81
2018-03-06T00:59:54.643Z,46.80
2018-03-06T01:02:23.646Z,46.66
2018-03-06T01:04:52.673Z,47.00
2018-03-06T01:07:21.688Z,47.46
2018-03-06T01:09:50.651Z,45.55
2018-03-06T01:12:19.643Z,43.63
2018-03-06T01:14:48.691Z,42.97
2018-03-06T01:17:18.440Z,43.97
2018-03-06T01:19:47.674Z,45.51
2018-03-06T01:22:16.681Z,46.05
2018-03-06T01:24:45.705Z,46.37
2018-03-06T01:29:58.659Z,46.82
2018-03-06T01:32:27.841Z,47.01
2018-03-06T01:34:57.297Z,47.34
2018-03-06T01:37:26.436Z,47.34
2018-03-06T01:39:55.647Z,47.33
2018-03-06T01:42:24.675Z,47.32
2018-03-06T01:44:53.634Z,47.33
2018-03-06T01:49:56.631Z,47.31
2018-03-06T01:52:25.691Z,47.10
2018-03-06T01:54:54.647Z,46.54
2018-03-06T01:58:22.615Z,43.92
2018-03-06T02:04:23.688Z,44.24
2018-03-06T02:06:52.686Z,45.40
2018-03-06T02:09:21.727Z,45.92
2018-03-06T02:11:50.688Z,46.31
2018-03-06T02:14:19.688Z,46.66
2018-03-06T02:16:48.772Z,46.90
2018-03-06T02:19:17.697Z,46.96
2018-03-06T02:22:26.718Z,47.03
2018-03-06T02:24:55.674Z,47.11
2018-03-06T02:27:24.741Z,47.30
2018-03-06T02:29:53.674Z,47.38
2018-03-06T02:32:22.667Z,47.32
2018-03-06T02:34:51.690Z,47.44
2018-03-06T02:37:20.685Z,44.84
2018-03-06T02:39:49.707Z,43.49
2018-03-06T02:42:18.632Z,43.35
2018-03-06T02:45:25.835Z,43.86
2018-03-06T02:47:54.723Z,44.73
2018-03-06T02:53:08.627Z,45.41
2018-03-06T02:55:38.663Z,45.80
2018-03-06T02:58:07.645Z,46.12
2018-03-06T03:00:36.627Z,46.28
2018-03-06T03:03:05.700Z,46.45
2018-03-06T03:07:12.523Z,46.62
2018-03-06T03:10:48.690Z,46.99
2018-03-06T03:15:00.039Z,47.11
2018-03-06T03:17:29.217Z,47.04
2018-03-06T03:19:58.644Z,47.41
2018-03-06T03:22:27.626Z,45.16
2018-03-06T03:25:35.588Z,43.48
2018-03-06T03:28:04.880Z,42.70
2018-03-06T03:30:34.072Z,43.94
2018-03-06T03:33:03.769Z,45.06
2018-03-06T03:35:32.765Z,45.62
2018-03-06T03:38:01.774Z,46.10
2018-03-06T03:40:30.896Z,46.26
2018-03-06T03:45:38.518Z,46.34
2018-03-06T03:48:07.676Z,46.41
2018-03-06T03:53:03.590Z,46.88
2018-03-06T03:55:32.877Z,46.84
2018-03-06T03:58:01.610Z,46.92
2018-03-06T04:00:30.867Z,46.93
2018-03-06T04:02:59.882Z,47.11
2018-03-06T04:05:28.674Z,47.16
2018-03-06T04:07:57.970Z,46.80
2018-03-06T04:10:27.444Z,44.50
2018-03-06T04:12:56.724Z,43.16
2018-03-06T04:15:25.784Z,42.72
2018-03-06T04:17:55.236Z,44.42
2018-03-06T04:20:24.744Z,45.52
2018-03-06T04:22:54.317Z,45.90
2018-03-06T04:25:23.743Z,46.14
2018-03-06T04:27:52.882Z,46.31
2018-03-06T04:30:21.690Z,46.32
2018-03-06T04:34:53.799Z,46.39
2018-03-06T04:37:23.463Z,46.36
2018-03-06T04:39:52.734Z,46.32
2018-03-06T04:42:21.891Z,46.34
2018-03-06T04:44:50.578Z,46.48
2018-03-06T04:47:19.787Z,46.48
2018-03-06T04:49:48.765Z,46.32
2018-03-06T04:52:17.779Z,46.33
2018-03-06T04:54:46.744Z,46.68
2018-03-06T04:57:41.523Z,45.10
2018-03-06T05:00:10.709Z,43.58
2018-03-06T05:02:39.784Z,42.66
2018-03-06T05:05:09.189Z,43.95
2018-03-06T05:10:59.692Z,47.03
2018-03-06T05:15:00.472Z,47.20
2018-03-06T05:17:29.663Z,47.68
2018-03-06T05:19:58.724Z,47.93
2018-03-06T05:22:27.837Z,48.18
2018-03-06T05:24:56.686Z,48.61
2018-03-06T05:27:25.703Z,47.81
2018-03-06T05:29:54.768Z,45.88
2018-03-06T05:32:23.717Z,45.58
2018-03-06T05:34:52.705Z,44.21
2018-03-06T05:37:21.720Z,43.04
2018-03-06T05:39:50.704Z,41.46
2018-03-06T05:42:19.743Z,40.18
2018-03-06T05:44:48.842Z,39.98
2018-03-06T05:47:17.681Z,42.11
2018-03-06T05:49:46.700Z,42.76
2018-03-06T05:52:15.778Z,43.66
2018-03-06T05:54:44.695Z,44.03
2018-03-06T05:57:13.694Z,44.38
2018-03-06T06:00:29.551Z,44.72
2018-03-06T06:02:59.589Z,44.44
2018-03-06T06:05:28.755Z,44.56
2018-03-06T06:07:57.697Z,44.75
2018-03-06T06:10:27.663Z,45.09
2018-03-06T06:12:56.723Z,45.24
2018-03-06T06:15:25.698Z,45.34
2018-03-06T06:19:58.761Z,43.07
2018-03-06T06:22:27.639Z,41.78
2018-03-06T06:25:43.623Z,42.33
2018-03-06T06:28:12.631Z,43.32
2018-03-06T06:30:41.678Z,44.18
2018-03-06T06:33:10.630Z,44.35
2018-03-06T06:35:39.646Z,44.51
2018-03-06T06:38:08.626Z,45.11
2018-03-06T06:43:33.604Z,45.83
2018-03-06T06:46:02.627Z,45.79
2018-03-06T06:48:31.726Z,45.87
2018-03-06T06:51:00.749Z,45.92
2018-03-06T07:08:27.439Z,43.11
2018-03-06T07:10:56.549Z,43.14
2018-03-06T07:13:25.706Z,42.88
2018-03-06T07:15:55.695Z,42.52
2018-03-06T07:18:24.696Z,42.41
2018-03-06T07:20:53.722Z,43.78
2018-03-06T07:23:22.720Z,44.10
2018-03-06T07:25:51.746Z,44.29
2018-03-06T07:28:20.664Z,44.36
2018-03-06T07:33:07.672Z,44.37
2018-03-06T07:35:36.779Z,44.59
2018-03-06T07:38:05.659Z,44.77
2018-03-06T07:40:34.697Z,45.02
2018-03-06T07:43:03.607Z,44.82
2018-03-06T07:45:32.677Z,45.07
2018-03-06T07:48:01.749Z,44.12
2018-03-06T07:51:47.648Z,39.38
2018-03-06T07:54:16.616Z,38.77
2018-03-06T07:56:45.658Z,38.49
2018-03-06T07:59:14.760Z,40.14
2018-03-06T08:01:43.798Z,41.06
2018-03-06T08:04:12.659Z,41.74
2018-03-06T08:06:41.696Z,42.45
2018-03-06T08:09:10.621Z,43.03
2018-03-06T08:11:39.648Z,43.07
2018-03-06T08:14:08.495Z,43.81
2018-03-06T08:18:32.926Z,44.56
2018-03-06T08:21:02.623Z,44.72
2018-03-06T08:23:31.682Z,44.91
2018-03-06T08:26:00.716Z,44.84
2018-03-06T08:28:29.693Z,45.29
2018-03-06T08:30:58.868Z,45.24
2018-03-06T08:33:27.655Z,45.27
2018-03-06T08:35:56.753Z,45.75
2018-03-06T08:38:25.822Z,45.76
2018-03-06T08:40:54.685Z,45.80
2018-03-06T08:43:23.641Z,45.14
2018-03-06T08:45:52.700Z,42.92
2018-03-06T08:48:21.655Z,41.46
2018-03-06T08:51:47.643Z,41.80
2018-03-06T08:54:16.652Z,43.42
2018-03-06T08:56:45.626Z,44.07
2018-03-06T08:59:14.511Z,44.56
2018-03-06T09:01:44.513Z,44.95
2018-03-06T09:04:13.743Z,45.18
2018-03-06T09:06:43.739Z,45.22
2018-03-06T09:09:12.816Z,45.50
2018-03-06T09:11:41.668Z,45.66
2018-03-06T09:14:10.748Z,46.10
2018-03-06T09:16:39.888Z,45.74
2018-03-06T09:19:08.782Z,45.03
2018-03-06T09:21:37.759Z,44.79
2018-03-06T09:24:06.706Z,44.67
2018-03-06T09:26:35.673Z,42.84
2018-03-06T09:29:04.727Z,41.41
2018-03-06T09:31:33.674Z,41.04
2018-03-06T09:34:02.656Z,42.09
2018-03-06T09:36:31.628Z,43.52
2018-03-06T09:39:00.623Z,44.80
2018-03-06T09:41:32.601Z,45.38
2018-03-06T09:44:01.603Z,45.79
2018-03-06T09:46:30.667Z,45.84
2018-03-06T09:48:59.730Z,46.01
2018-03-06T09:51:28.789Z,46.73
2018-03-06T09:56:18.615Z,46.44
2018-03-06T09:58:47.680Z,46.69
2018-03-06T10:01:16.682Z,46.68
2018-03-06T10:03:45.639Z,46.37
2018-03-06T10:18:19.646Z,50.84
2018-03-06T10:20:48.643Z,49.28
2018-03-06T10:23:17.652Z,49.08
2018-03-06T10:27:33.326Z,48.53
2018-03-06T10:30:02.684Z,48.25
2018-03-06T10:32:31.651Z,48.18
2018-03-06T10:35:00.643Z,47.76
2018-03-06T10:37:29.634Z,47.89
2018-03-06T10:39:58.623Z,47.54
2018-03-06T10:42:27.680Z,47.22
2018-03-06T10:44:56.777Z,47.14
2018-03-06T10:47:25.662Z,48.43
2018-03-06T10:49:54.650Z,47.47
2018-03-06T10:52:23.673Z,47.45
2018-03-06T10:54:52.711Z,47.17
2018-03-06T10:57:55.649Z,47.30
2018-03-06T11:00:30.544Z,47.40
2018-03-06T11:02:59.609Z,47.35
2018-03-06T11:05:28.854Z,47.37
2018-03-06T11:07:58.192Z,47.81
2018-03-06T11:10:27.741Z,47.88
2018-03-06T11:12:57.462Z,47.60
2018-03-06T11:15:26.720Z,47.51
2018-03-06T11:17:55.768Z,47.37
2018-03-06T11:20:24.746Z,47.19
2018-03-06T11:22:53.876Z,47.28
2018-03-06T11:25:22.878Z,46.70
2018-03-06T11:30:11.622Z,46.32
2018-03-06T11:32:40.672Z,46.82
2018-03-06T11:35:09.731Z,46.94
2018-03-06T11:37:38.726Z,46.39
2018-03-06T11:40:07.774Z,45.84
2018-03-06T11:45:06.701Z,45.70
2018-03-06T11:47:35.680Z,45.79
2018-03-06T11:50:04.671Z,46.22
2018-03-06T11:52:33.737Z,46.26
2018-03-06T11:55:02.655Z,46.15
2018-03-06T11:57:31.692Z,46.70
2018-03-06T12:00:00.669Z,47.19
2018-03-06T12:02:29.697Z,47.62
2018-03-06T12:04:58.698Z,47.55
2018-03-06T12:07:27.759Z,47.54
2018-03-06T12:09:56.667Z,47.64
2018-03-06T12:12:25.687Z,47.44
2018-03-06T12:14:54.718Z,47.38
2018-03-06T12:17:23.709Z,47.40
2018-03-06T12:19:52.690Z,47.42
2018-03-06T12:22:21.779Z,47.24
2018-03-06T12:24:51.624Z,47.08
2018-03-06T12:27:20.679Z,47.06
2018-03-06T12:29:49.740Z,47.00
2018-03-06T12:32:19.721Z,47.26
2018-03-06T12:34:48.739Z,47.26
2018-03-06T12:37:18.651Z,47.04
2018-03-06T12:39:47.671Z,47.14
2018-03-06T12:42:16.683Z,47.06
2018-03-06T12:44:45.809Z,47.17
2018-03-06T12:47:15.317Z,47.30
2018-03-06T12:49:44.753Z,47.20
2018-03-06T12:52:13.790Z,47.16
2018-03-06T12:55:07.694Z,47.11
2018-03-06T12:57:37.156Z,47.06
2018-03-06T13:00:06.686Z,46.89
2018-03-06T13:02:35.692Z,47.94
2018-03-06T13:05:04.718Z,48.09
2018-03-06T13:07:33.745Z,48.02
2018-03-06T13:10:02.735Z,48.02
2018-03-06T13:14:18.717Z,47.61
2018-03-06T13:16:47.709Z,47.51
2018-03-06T13:19:16.703Z,47.51
2018-03-06T13:21:45.659Z,47.37
2018-03-06T13:24:38.643Z,47.26
2018-03-06T13:28:19.653Z,47.21
2018-03-06T13:31:59.651Z,47.28
2018-03-06T13:34:29.690Z,47.15
2018-03-06T13:36:58.696Z,47.06
2018-03-06T13:39:27.735Z,47.01
2018-03-06T13:41:56.675Z,47.12
2018-03-06T13:44:25.655Z,47.27
2018-03-06T13:46:54.643Z,47.53
2018-03-06T13:49:23.665Z,47.56
2018-03-06T13:51:52.728Z,47.67
2018-03-06T13:54:21.686Z,47.86
2018-03-06T13:56:50.711Z,47.87
2018-03-06T13:59:20.865Z,47.80
2018-03-06T14:01:49.661Z,47.72
2018-03-06T14:04:18.676Z,47.65
2018-03-06T14:06:47.707Z,47.64
2018-03-06T14:09:16.717Z,47.54
2018-03-06T14:11:45.674Z,47.57
2018-03-06T14:14:14.676Z,47.20
2018-03-06T14:16:43.691Z,46.53
2018-03-06T14:19:12.667Z,46.17
2018-03-06T14:21:41.636Z,46.04
2018-03-06T14:24:10.700Z,46.25
2018-03-06T14:28:35.679Z,46.58
2018-03-06T14:31:04.715Z,47.18
2018-03-06T14:33:33.684Z,47.57
2018-03-06T14:36:02.664Z,47.48
2018-03-06T14:38:31.698Z,47.52
2018-03-06T14:41:00.730Z,47.53
2018-03-06T14:43:29.611Z,47.55
2018-03-06T14:45:59.493Z,47.34
2018-03-06T14:48:28.659Z,47.94
2018-03-06T14:50:57.805Z,47.95
2018-03-06T14:53:26.759Z,47.72
2018-03-06T14:55:55.827Z,46.95
2018-03-06T14:58:24.719Z,47.24
2018-03-06T15:00:53.726Z,47.58
2018-03-06T15:05:00.189Z,47.55
2018-03-06T15:07:30.167Z,48.03
2018-03-06T15:10:01.582Z,47.80
2018-03-06T15:12:31.529Z,44.87
2018-03-06T15:15:00.777Z,45.44
2018-03-06T15:17:30.234Z,44.61
2018-03-06T15:20:00.220Z,44.14
2018-03-06T15:22:30.766Z,44.62
2018-03-06T15:25:00.337Z,45.12
2018-03-06T15:27:30.304Z,45.44
2018-03-06T15:31:28.796Z,45.98
2018-03-06T15:33:57.776Z,43.43
2018-03-06T15:36:27.181Z,42.23
2018-03-06T15:38:58.377Z,42.44
2018-03-06T15:41:28.504Z,42.99
2018-03-06T15:43:58.898Z,43.44
2018-03-06T15:48:02.529Z,45.32
2018-03-06T15:50:35.633Z,46.04
2018-03-06T15:53:05.154Z,46.53
2018-03-06T15:55:39.193Z,46.02
2018-03-06T15:58:09.627Z,43.39
2018-03-06T16:00:39.641Z,41.80
2018-03-06T16:03:10.534Z,41.33
2018-03-06T16:06:59.493Z,40.81
2018-03-06T16:09:28.676Z,42.79
2018-03-06T16:11:57.751Z,43.94
2018-03-06T16:14:26.977Z,45.11
2018-03-06T16:16:55.618Z,45.84
2018-03-06T16:19:24.767Z,46.35
2018-03-06T16:23:10.904Z,44.92
2018-03-06T16:26:46.189Z,42.89
2018-03-06T16:29:16.175Z,42.96
2018-03-06T16:33:35.696Z,44.37
2018-03-06T16:37:20.799Z,45.88
2018-03-06T16:39:50.658Z,46.51
2018-03-06T16:42:20.236Z,47.17
2018-03-06T16:44:50.329Z,47.43
2018-03-06T16:47:20.216Z,47.06
2018-03-06T16:49:49.902Z,44.89
2018-03-06T16:52:18.685Z,43.58
2018-03-06T16:54:48.164Z,42.81
2018-03-06T16:57:20.809Z,42.75
2018-03-06T16:59:50.443Z,44.17
2018-03-06T17:02:19.790Z,46.12
2018-03-06T17:04:48.904Z,46.23
2018-03-06T17:09:09.686Z,47.56
2018-03-06T17:11:41.023Z,47.64
2018-03-06T17:14:10.883Z,47.95
2018-03-06T17:16:39.773Z,46.33
2018-03-06T17:19:08.920Z,42.85
2018-03-06T17:21:37.589Z,42.28
2018-03-06T17:24:08.899Z,42.14
2018-03-06T17:26:37.675Z,43.16
2018-03-06T17:29:07.173Z,45.14
2018-03-06T17:31:35.784Z,45.76
2018-03-06T17:34:04.892Z,46.05
2018-03-06T17:36:33.618Z,46.01
2018-03-06T17:39:04.265Z,46.42
2018-03-06T17:41:33.770Z,46.00
2018-03-06T17:44:03.172Z,44.32
2018-03-06T17:46:32.726Z,42.96
2018-03-06T17:49:01.780Z,43.03
2018-03-06T17:51:31.494Z,42.31
2018-03-06T17:54:00.764Z,45.01
2018-03-06T17:56:30.480Z,46.22
2018-03-06T17:59:32.865Z,46.80
2018-03-06T18:02:02.495Z,48.27
2018-03-06T18:04:31.719Z,47.12
2018-03-06T18:07:01.436Z,46.43
2018-03-06T18:09:30.692Z,46.24
2018-03-06T18:11:59.678Z,43.92
2018-03-06T18:14:29.755Z,42.84
2018-03-06T18:17:00.499Z,42.84
2018-03-06T18:21:01.758Z,44.77
2018-03-06T18:23:31.183Z,45.53
2018-03-06T18:27:18.763Z,46.93
2018-03-06T18:29:47.765Z,47.67
2018-03-06T18:32:16.880Z,47.98
2018-03-06T18:34:46.498Z,47.80
2018-03-06T18:37:16.524Z,45.30
2018-03-06T18:39:47.420Z,44.11
2018-03-06T18:42:16.601Z,43.35
2018-03-06T18:44:45.701Z,42.88
2018-03-06T18:47:15.728Z,46.09
2018-03-06T18:49:56.678Z,46.67
2018-03-06T18:52:25.704Z,46.51
2018-03-06T18:54:54.682Z,46.85
2018-03-06T18:57:23.710Z,47.36
2018-03-06T19:03:06.149Z,46.21
2018-03-06T19:07:45.679Z,42.44
2018-03-06T19:12:44.530Z,42.16
2018-03-06T19:15:13.697Z,42.08
2018-03-06T19:17:42.671Z,43.64
2018-03-06T19:20:11.675Z,44.72
2018-03-06T19:22:40.696Z,45.43
2018-03-06T19:25:09.688Z,45.81
2018-03-06T19:27:38.661Z,46.46
2018-03-06T19:30:07.665Z,46.53
2018-03-06T19:32:36.638Z,44.07
2018-03-06T19:35:05.658Z,42.64
2018-03-06T19:37:34.714Z,41.35
2018-03-06T19:40:03.673Z,41.18
2018-03-06T19:42:32.768Z,42.14
2018-03-06T19:45:54.631Z,44.25
2018-03-06T19:48:23.711Z,44.99
2018-03-06T19:50:52.683Z,45.34
2018-03-06T19:53:21.685Z,45.80
2018-03-06T19:55:50.671Z,45.93
2018-03-06T19:58:19.772Z,45.79
2018-03-06T20:00:48.723Z,43.90
2018-03-06T20:03:17.679Z,42.03
2018-03-06T20:05:46.651Z,41.45
2018-03-06T20:08:15.722Z,41.54
2018-03-06T20:10:44.644Z,41.14
2018-03-06T20:13:13.699Z,42.58
2018-03-06T20:15:42.693Z,43.62
2018-03-06T20:18:11.695Z,44.27
2018-03-06T20:23:11.682Z,45.54
2018-03-06T20:26:00.631Z,45.51
2018-03-06T20:28:29.670Z,44.30
2018-03-06T20:34:08.474Z,41.14
2018-03-06T20:36:37.661Z,40.89
2018-03-06T20:39:12.587Z,40.84
2018-03-06T20:41:41.747Z,42.85
2018-03-06T20:44:10.831Z,44.52
2018-03-06T20:46:45.773Z,45.24
2018-03-06T20:51:23.587Z,46.04
2018-03-06T20:56:58.475Z,46.15
2018-03-06T20:59:27.688Z,45.00
2018-03-06T21:01:56.696Z,42.60
2018-03-06T21:06:07.683Z,41.53
2018-03-06T21:08:36.764Z,41.29
2018-03-06T21:11:05.663Z,42.32
2018-03-06T21:13:34.643Z,43.98
2018-03-06T21:16:03.661Z,45.09
2018-03-06T21:18:32.611Z,45.51
2018-03-06T21:21:01.684Z,45.75
2018-03-06T21:23:30.685Z,46.03
2018-03-06T21:25:59.656Z,46.05
2018-03-06T21:28:28.730Z,43.99
2018-03-06T21:30:57.729Z,42.23
2018-03-06T21:33:26.691Z,41.51
2018-03-06T21:35:55.649Z,41.49
2018-03-06T21:39:28.680Z,41.22
2018-03-06T21:41:57.711Z,43.50
2018-03-06T21:45:45.683Z,45.12
2018-03-06T21:48:14.647Z,45.35
2018-03-06T21:50:43.670Z,45.72
2018-03-06T21:55:34.492Z,46.10
2018-03-06T21:58:03.531Z,44.79
2018-03-06T22:00:32.688Z,42.68
2018-03-06T22:03:01.696Z,41.76
2018-03-06T22:05:30.647Z,41.13
2018-03-06T22:07:59.955Z,41.27
2018-03-06T22:10:28.283Z,42.00
2018-03-06T22:12:57.723Z,43.77
2018-03-06T22:15:26.655Z,45.24
2018-03-06T22:17:55.694Z,45.80
2018-03-06T22:20:24.660Z,45.97
2018-03-06T22:22:53.687Z,46.29
2018-03-06T22:28:06.655Z,44.42
2018-03-06T22:30:35.627Z,42.75
2018-03-06T22:33:04.651Z,41.98
2018-03-06T22:35:33.653Z,40.58
2018-03-06T22:38:02.687Z,42.78
2018-03-06T22:40:31.651Z,44.82
2018-03-06T22:43:00.646Z,45.72
2018-03-06T22:45:29.655Z,46.06
2018-03-06T22:47:58.631Z,46.44
2018-03-06T22:50:27.615Z,46.77
2018-03-06T22:52:57.321Z,46.73
2018-03-06T22:55:27.459Z,44.57
2018-03-06T22:57:56.611Z,42.91
2018-03-06T23:00:31.667Z,42.63
2018-03-06T23:03:00.653Z,42.28
2018-03-06T23:05:29.685Z,42.42
2018-03-06T23:07:59.696Z,43.97
2018-03-06T23:10:28.644Z,45.39
2018-03-06T23:12:57.627Z,46.10
2018-03-06T23:15:26.607Z,46.62
2018-03-06T23:17:55.696Z,46.75
2018-03-06T23:20:24.659Z,47.02
2018-03-06T23:22:53.726Z,46.73
2018-03-06T23:25:22.682Z,44.57
2018-03-06T23:27:51.643Z,43.36
2018-03-06T23:30:20.627Z,42.46
2018-03-06T23:32:49.639Z,41.70
2018-03-06T23:35:18.680Z,41.68
2018-03-06T23:37:47.728Z,44.02
2018-03-06T23:40:16.674Z,45.37
2018-03-06T23:42:45.742Z,46.08
2018-03-06T23:45:14.705Z,46.58
2018-03-06T23:47:43.643Z,47.08
2018-03-06T23:50:12.699Z,47.46
2018-03-06T23:52:42.726Z,47.43
2018-03-06T23:55:11.706Z,44.61
2018-03-06T23:57:40.699Z,42.36
